Terminal Aerodrome Forecast
Issued by NWS

Home | Current Version | Previous Version | Text Only | Print | Product List | Glossary On
Versions: 1 2 3 4 5 6 7 8 9 10 11 12 13 14 15 16 17 18
000
FTUS43 KGRR 230801 AAC
TAFLAN
TAF AMD
KLAN 230801Z 2308/2406 00000KT P6SM SCT060
     FM230900 00000KT 3SM BR OVC010
     FM231000 00000KT 2SM BR OVC006
     FM231600 27006KT P6SM VCTS BKN035CB
     FM231900 28008KT P6SM SCT100=

USA.gov is the U.S. government's official web portal to all federal, state and local government web resources and services.